Time;durP1;ratioP1;P1;durP2;ratioP2;P2;SDS_P1;SDS_P2;PMS_P1;PMS_P2;Temp;Humidity;BMP_temperature;BMP_pressure;BME280_temperature;BME280_humidity;BME280_pressure;Samples;Min_cycle;Max_cycle;Signal;HPM_P1;HPM_P2
2021/06/13 00:00:16;;;;;;;0.00;0.00;;;;;;;25.04;45.05;102622.03;5092396;28;20036;-66
2021/06/13 00:02:42;;;;;;;0.00;0.00;;;;;;;25.03;45.00;102636.38;5090621;28;20062;-66
2021/06/13 00:05:09;;;;;;;0.00;0.00;;;;;;;25.05;44.86;102639.69;5098673;28;20036;-67
2021/06/13 00:07:35;;;;;;;0.00;0.00;;;;;;;25.08;44.80;102642.03;5091301;28;20035;-66
2021/06/13 00:10:00;;;;;;;0.00;0.00;;;;;;;25.05;44.94;102642.38;5094159;28;20040;-66
2021/06/13 00:12:26;;;;;;;0.00;0.00;;;;;;;25.05;44.95;102642.38;5090411;28;20032;-66
2021/06/13 00:14:51;;;;;;;0.00;0.00;;;;;;;25.08;44.81;102644.69;5091132;28;20043;-66
2021/06/13 00:17:17;;;;;;;0.00;0.00;;;;;;;24.97;45.01;102649.34;5092645;28;20393;-66
2021/06/13 00:19:44;;;;;;;0.00;0.00;;;;;;;24.98;44.79;102644.84;5089873;28;20477;-66
2021/06/13 00:22:09;;;;;;;0.00;0.00;;;;;;;24.95;44.95;102648.66;5092252;28;20105;-66
2021/06/13 00:24:35;;;;;;;0.00;0.00;;;;;;;24.98;44.71;102651.03;5089292;28;20044;-66
2021/06/13 00:27:01;;;;;;;0.00;0.00;;;;;;;24.95;44.80;102650.50;5092678;28;20572;-66
2021/06/13 00:29:26;;;;;;;0.00;0.00;;;;;;;24.87;45.22;102642.53;5077775;28;20118;-66
2021/06/13 00:31:52;;;;;;;0.00;0.00;;;;;;;24.89;44.97;102644.03;5092585;28;20032;-66
2021/06/13 00:34:17;;;;;;;0.00;0.00;;;;;;;24.91;44.92;102647.34;5087434;28;20111;-66
2021/06/13 00:36:44;;;;;;;0.00;0.00;;;;;;;24.88;44.97;102639.69;5091128;28;20542;-66
2021/06/13 00:39:09;;;;;;;0.00;0.00;;;;;;;24.88;44.80;102645.03;5076253;28;20036;-66
2021/06/13 00:41:35;;;;;;;0.00;0.00;;;;;;;24.86;44.98;102641.72;5087932;28;20082;-66
2021/06/13 00:44:00;;;;;;;0.00;0.00;;;;;;;24.88;45.13;102644.19;5091676;28;20046;-66
2021/06/13 00:46:26;;;;;;;0.10;0.10;;;;;;;24.80;45.05;102653.06;5088595;28;20763;-66
2021/06/13 00:48:51;;;;;;;0.00;0.00;;;;;;;24.83;44.92;102649.22;5092256;28;20038;-66
2021/06/13 00:51:17;;;;;;;0.00;0.00;;;;;;;24.82;45.03;102648.38;5090302;28;20028;-66
2021/06/13 00:53:44;;;;;;;0.00;0.00;;;;;;;24.83;44.68;102641.22;5076327;28;20039;-66
2021/06/13 00:56:14;;;;;;;0.00;0.00;;;;;;;24.75;45.26;102639.38;5081694;28;20408;-66
2021/06/13 00:58:39;;;;;;;0.00;0.00;;;;;;;24.81;44.96;102646.72;5088212;28;20093;-66
2021/06/13 01:01:06;;;;;;;0.00;0.00;;;;;;;24.84;44.81;102642.88;5090892;28;20478;-66
2021/06/13 01:03:35;;;;;;;0.00;0.00;;;;;;;24.82;44.74;102645.72;5089125;28;20134;-66
2021/06/13 01:06:01;;;;;;;0.00;0.00;;;;;;;24.75;44.85;102628.72;5087356;28;20122;-66
2021/06/13 01:08:54;;;;;;;0.00;0.00;;;;;;;24.70;45.03;102626.59;5087486;28;20038;-66
2021/06/13 01:12:00;;;;;;;0.00;0.00;;;;;;;24.71;44.92;102628.25;5080767;28;20023;-66
2021/06/13 01:14:52;;;;;;;0.00;0.00;;;;;;;24.76;44.79;102635.72;5055893;28;20549;-66
2021/06/13 01:17:28;;;;;;;0.00;0.00;;;;;;;24.73;44.80;102640.56;5071391;28;20176;-66
2021/06/13 01:20:08;;;;;;;0.00;0.00;;;;;;;24.70;45.02;102650.56;5092134;28;20035;-66
2021/06/13 01:22:50;;;;;;;0.00;0.00;;;;;;;24.69;44.84;102648.06;5089973;28;20447;-66
2021/06/13 01:25:44;;;;;;;0.00;0.00;;;;;;;24.68;44.99;102649.91;5089182;28;20450;-67
2021/06/13 01:28:48;;;;;;;0.10;0.10;;;;;;;24.69;44.82;102656.88;5030344;28;20101;-66
2021/06/13 01:31:18;;;;;;;0.00;0.00;;;;;;;24.70;44.88;102660.38;5037770;28;20067;-66
2021/06/13 01:33:47;;;;;;;0.00;0.00;;;;;;;24.67;44.87;102663.38;5041479;28;20077;-66
2021/06/13 01:36:15;;;;;;;0.00;0.00;;;;;;;24.69;44.91;102666.72;5043484;28;20064;-66
2021/06/13 01:38:44;;;;;;;0.00;0.00;;;;;;;24.68;44.93;102673.03;5034168;28;20044;-67
2021/06/13 01:41:13;;;;;;;0.00;0.00;;;;;;;24.64;44.96;102677.88;5043924;28;20037;-66
2021/06/13 01:43:40;;;;;;;0.00;0.00;;;;;;;24.63;44.92;102680.72;5052146;28;20046;-66
2021/06/13 01:46:07;;;;;;;0.00;0.00;;;;;;;24.67;44.92;102677.53;5036302;28;20079;-66
2021/06/13 01:48:35;;;;;;;0.00;0.00;;;;;;;24.63;44.88;102680.72;5043004;28;20037;-66
2021/06/13 01:51:02;;;;;;;0.00;0.00;;;;;;;24.61;44.85;102680.88;5024073;28;20502;-66
2021/06/13 01:53:29;;;;;;;0.10;0.10;;;;;;;24.63;44.88;102675.38;5041070;28;20047;-66
2021/06/13 01:55:56;;;;;;;0.00;0.00;;;;;;;24.57;44.96;102678.69;5036981;28;20025;-67
2021/06/13 01:58:24;;;;;;;0.00;0.00;;;;;;;24.54;45.03;102679.03;5050349;28;20131;-66
2021/06/13 02:01:12;;;;;;;0.00;0.00;;;;;;;24.59;45.05;102682.84;5051680;28;20051;-66
2021/06/13 02:03:42;;;;;;;0.03;0.03;;;;;;;24.56;44.84;102672.53;5051156;28;20091;-67
2021/06/13 02:06:32;;;;;;;0.00;0.00;;;;;;;24.59;44.54;102668.69;5088452;28;20441;-66
2021/06/13 02:09:03;;;;;;;0.00;0.00;;;;;;;24.53;44.91;102667.56;5077511;28;20046;-67
2021/06/13 02:11:32;;;;;;;0.00;0.00;;;;;;;24.52;45.09;102662.41;5087596;28;20443;-66
2021/06/13 02:14:00;;;;;;;0.00;0.00;;;;;;;24.54;44.92;102671.88;5086470;28;20489;-67
2021/06/13 02:16:32;;;;;;;0.00;0.00;;;;;;;24.55;44.89;102675.38;5089536;28;20542;-66
2021/06/13 02:19:01;;;;;;;0.00;0.00;;;;;;;24.53;44.91;102674.72;5061988;28;20489;-66
2021/06/13 02:21:31;;;;;;;0.00;0.00;;;;;;;24.52;44.88;102679.19;5077423;28;20827;-66
2021/06/13 02:23:57;;;;;;;0.00;0.00;;;;;;;24.48;44.86;102682.38;5086219;28;20397;-66
2021/06/13 02:26:25;;;;;;;0.00;0.00;;;;;;;24.49;44.85;102673.38;5081847;28;20462;-66
2021/06/13 02:28:54;;;;;;;0.00;0.00;;;;;;;24.46;45.08;102679.88;5088136;28;20124;-66
2021/06/13 02:31:26;;;;;;;0.00;0.00;;;;;;;24.48;45.05;102674.38;5079190;28;20071;-66
2021/06/13 02:33:54;;;;;;;0.00;0.00;;;;;;;24.46;45.06;102674.56;5087618;28;20073;-66
2021/06/13 02:36:23;;;;;;;0.00;0.00;;;;;;;24.47;45.04;102684.19;5073382;28;20095;-66
2021/06/13 02:38:55;;;;;;;0.03;0.03;;;;;;;24.44;44.97;102691.69;5073996;28;20061;-66
2021/06/13 02:41:21;;;;;;;0.00;0.00;;;;;;;24.50;44.66;102696.34;5089517;28;20036;-67
2021/06/13 02:43:48;;;;;;;0.00;0.00;;;;;;;24.43;44.84;102688.19;5074992;28;20036;-66
2021/06/13 02:46:14;;;;;;;0.00;0.00;;;;;;;24.43;44.88;102687.38;5080893;28;20179;-66
2021/06/13 02:48:41;;;;;;;0.00;0.00;;;;;;;24.44;44.89;102687.19;5090199;28;20485;-66
2021/06/13 02:51:07;;;;;;;0.00;0.00;;;;;;;24.44;44.87;102694.38;5078116;28;20042;-66
2021/06/13 02:53:43;;;;;;;0.00;0.00;;;;;;;24.43;44.79;102696.19;5088670;28;20489;-66
2021/06/13 02:56:31;;;;;;;0.00;0.00;;;;;;;24.41;44.82;102698.16;5075069;28;20051;-66
2021/06/13 02:59:29;;;;;;;0.00;0.00;;;;;;;24.40;44.87;102696.50;5088849;28;20132;-66
2021/06/13 03:01:58;;;;;;;0.00;0.00;;;;;;;24.35;44.92;102697.00;5066881;28;20043;-66
2021/06/13 03:04:24;;;;;;;0.00;0.00;;;;;;;24.35;44.94;102693.50;5073212;28;20345;-66
2021/06/13 03:06:55;;;;;;;0.00;0.00;;;;;;;24.41;44.89;102708.81;5087331;28;20167;-66
2021/06/13 03:09:23;;;;;;;0.00;0.00;;;;;;;24.39;44.77;102698.31;5083826;28;20038;-66
2021/06/13 03:11:50;;;;;;;0.00;0.00;;;;;;;24.39;45.03;102700.16;5077453;28;20039;-66
2021/06/13 03:14:16;;;;;;;0.08;0.08;;;;;;;24.35;45.07;102705.00;5097124;28;20035;-66
2021/06/13 03:16:45;;;;;;;0.00;0.00;;;;;;;24.32;44.89;102701.81;5088318;28;20767;-66
2021/06/13 03:19:13;;;;;;;0.00;0.00;;;;;;;24.34;44.90;102697.16;5062301;28;20357;-66
2021/06/13 03:21:41;;;;;;;0.00;0.00;;;;;;;24.36;44.97;102697.84;5080264;28;20040;-66
2021/06/13 03:24:07;;;;;;;0.00;0.00;;;;;;;24.30;44.87;102703.81;5094456;28;20397;-66
2021/06/13 03:26:36;;;;;;;0.08;0.08;;;;;;;24.31;44.97;102713.47;5077240;28;20565;-66
2021/06/13 03:29:04;;;;;;;0.00;0.00;;;;;;;24.30;44.77;102709.97;5093477;28;20024;-66
2021/06/13 03:31:32;;;;;;;0.00;0.00;;;;;;;24.30;45.00;102720.63;5081336;28;20118;-66
2021/06/13 03:33:58;;;;;;;0.00;0.00;;;;;;;24.31;44.96;102721.47;5091463;28;20032;-66
2021/06/13 03:36:26;;;;;;;0.00;0.00;;;;;;;24.26;45.08;102718.44;5091333;28;20682;-66
2021/06/13 03:38:54;;;;;;;0.00;0.00;;;;;;;24.25;44.92;102717.59;5077764;28;20177;-66
2021/06/13 03:41:24;;;;;;;0.00;0.00;;;;;;;24.28;44.87;102714.59;5074815;28;20096;-66
2021/06/13 03:43:51;;;;;;;0.00;0.00;;;;;;;24.29;44.99;102718.97;5087889;28;20258;-66
2021/06/13 03:46:18;;;;;;;0.10;0.10;;;;;;;24.22;44.90;102711.75;5093601;28;20036;-66
2021/06/13 03:48:45;;;;;;;0.00;0.00;;;;;;;24.26;45.01;102711.28;5091293;28;20040;-66
2021/06/13 03:51:12;;;;;;;0.08;0.08;;;;;;;24.19;44.98;102707.59;5089686;28;20044;-67
2021/06/13 03:53:46;;;;;;;0.00;0.00;;;;;;;24.23;45.23;102722.22;5091711;28;20048;-66
2021/06/13 03:56:19;;;;;;;0.00;0.00;;;;;;;24.31;44.98;102722.28;5079692;28;20114;-66
2021/06/13 03:58:46;;;;;;;0.00;0.00;;;;;;;24.25;44.92;102719.44;5090244;28;20093;-66
2021/06/13 04:01:13;;;;;;;0.00;0.00;;;;;;;24.18;44.89;102721.91;5095745;28;20078;-66
2021/06/13 04:03:45;;;;;;;0.00;0.00;;;;;;;24.22;44.92;102728.56;5089627;28;20036;-66
2021/06/13 04:06:13;;;;;;;0.00;0.00;;;;;;;24.23;44.82;102724.91;5087971;28;20043;-66
2021/06/13 04:08:39;;;;;;;0.00;0.00;;;;;;;24.20;44.83;102727.88;5090227;28;20032;-66
2021/06/13 04:11:08;;;;;;;0.00;0.00;;;;;;;24.19;44.89;102728.88;5091621;28;20036;-66
2021/06/13 04:13:34;;;;;;;0.00;0.00;;;;;;;24.18;44.96;102727.22;5095505;28;20024;-67
2021/06/13 04:16:05;;;;;;;0.00;0.00;;;;;;;24.20;45.07;102727.06;5073250;28;20114;-66
2021/06/13 04:18:31;;;;;;;0.00;0.00;;;;;;;24.20;44.81;102735.03;5084555;28;20039;-66
2021/06/13 04:20:57;;;;;;;0.03;0.03;;;;;;;24.17;45.01;102736.19;5079978;28;20093;-66
2021/06/13 04:23:23;;;;;;;0.00;0.00;;;;;;;24.19;44.78;102744.84;5090904;28;20044;-66
2021/06/13 04:25:50;;;;;;;0.00;0.00;;;;;;;24.21;44.89;102739.38;5094133;28;20046;-66
2021/06/13 04:28:17;;;;;;;0.05;0.05;;;;;;;24.17;44.79;102741.53;5092045;28;20056;-66
2021/06/13 04:31:01;;;;;;;0.00;0.00;;;;;;;24.21;44.97;102736.69;5089022;28;20032;-66
2021/06/13 04:33:27;;;;;;;0.00;0.00;;;;;;;24.15;44.84;102740.88;5090597;28;20550;-66
2021/06/13 04:35:53;;;;;;;0.05;0.05;;;;;;;24.17;45.04;102741.53;5090866;28;20035;-66
2021/06/13 04:38:18;;;;;;;0.00;0.00;;;;;;;24.15;44.96;102737.38;5090306;28;20028;-66
2021/06/13 04:40:44;;;;;;;0.00;0.00;;;;;;;24.15;45.07;102734.72;5090176;28;20036;-66
2021/06/13 04:43:09;;;;;;;0.00;0.00;;;;;;;24.14;44.90;102738.38;5088864;28;20533;-66
2021/06/13 04:45:35;;;;;;;0.00;0.00;;;;;;;24.09;44.95;102733.53;5095894;28;20047;-66
2021/06/13 04:48:03;;;;;;;0.00;0.00;;;;;;;24.09;44.80;102739.69;5090845;28;20059;-66
2021/06/13 04:50:29;;;;;;;0.00;0.00;;;;;;;24.11;45.06;102736.88;5075185;28;20043;-66
2021/06/13 04:53:00;;;;;;;0.00;0.00;;;;;;;24.09;45.07;102737.03;5092524;28;20043;-66
2021/06/13 04:55:39;;;;;;;0.00;0.00;;;;;;;24.11;45.04;102740.34;5090348;28;20107;-67
2021/06/13 04:58:05;;;;;;;0.00;0.00;;;;;;;24.13;44.73;102745.53;5092122;28;20047;-66
2021/06/13 05:00:30;;;;;;;0.00;0.00;;;;;;;24.08;44.77;102738.03;5092451;28;20035;-67
2021/06/13 05:02:56;;;;;;;0.00;0.00;;;;;;;24.14;45.02;102743.69;5087786;28;20123;-66
2021/06/13 05:05:22;;;;;;;0.00;0.00;;;;;;;24.09;44.90;102744.19;5090766;28;20043;-66
2021/06/13 05:07:48;;;;;;;0.00;0.00;;;;;;;24.10;44.97;102745.84;5088350;28;20074;-66
2021/06/13 05:10:13;;;;;;;0.00;0.00;;;;;;;24.04;45.13;102743.81;5087094;28;20032;-66
2021/06/13 05:12:59;;;;;;;0.00;0.00;;;;;;;24.04;44.98;102749.97;5090747;28;20517;-66
2021/06/13 05:15:25;;;;;;;0.00;0.00;;;;;;;24.04;44.96;102744.66;5086704;28;21608;-66
2021/06/13 05:17:51;;;;;;;0.00;0.00;;;;;;;24.07;45.03;102748.84;5091030;28;20038;-66
2021/06/13 05:20:18;;;;;;;0.00;0.00;;;;;;;24.03;45.13;102740.31;5088263;28;20062;-66
2021/06/13 05:22:57;;;;;;;0.00;0.00;;;;;;;24.08;44.81;102747.84;5088361;28;20044;-66
2021/06/13 05:25:26;;;;;;;0.00;0.00;;;;;;;24.03;44.93;102747.47;5086831;28;20128;-67
2021/06/13 05:27:54;;;;;;;0.00;0.00;;;;;;;24.03;45.02;102744.81;5093221;28;20046;-66
2021/06/13 05:30:20;;;;;;;0.00;0.00;;;;;;;24.06;44.87;102750.66;5076394;28;20193;-66
2021/06/13 05:32:45;;;;;;;0.00;0.00;;;;;;;24.09;44.84;102758.31;5092584;28;20722;-66
2021/06/13 05:35:11;;;;;;;0.00;0.00;;;;;;;24.02;45.10;102761.78;5089287;28;20035;-66
2021/06/13 05:37:37;;;;;;;0.00;0.00;;;;;;;24.04;44.91;102770.44;5087764;28;20028;-66
2021/06/13 05:40:06;;;;;;;0.00;0.00;;;;;;;24.00;45.07;102769.91;5062744;28;20034;-66
2021/06/13 05:42:32;;;;;;;0.00;0.00;;;;;;;23.98;45.21;102766.59;5088605;28;20093;-66
2021/06/13 05:44:57;;;;;;;0.00;0.00;;;;;;;24.08;44.91;102766.47;5095035;28;20044;-66
2021/06/13 05:47:23;;;;;;;0.00;0.00;;;;;;;24.02;45.13;102767.94;5090713;28;20088;-66
2021/06/13 05:49:48;;;;;;;0.08;0.08;;;;;;;24.02;44.79;102762.59;5090493;28;20705;-66
2021/06/13 05:52:14;;;;;;;0.10;0.10;;;;;;;24.04;44.96;102773.09;5090845;28;20123;-66
2021/06/13 05:54:39;;;;;;;0.03;0.03;;;;;;;24.02;44.86;102759.09;5090624;28;20039;-66
2021/06/13 05:57:06;;;;;;;0.05;0.05;;;;;;;24.00;44.96;102780.56;5087510;28;20082;-66
2021/06/13 05:59:32;;;;;;;0.00;0.00;;;;;;;24.03;44.78;102774.91;5090533;28;20105;-66
2021/06/13 06:01:57;;;;;;;0.00;0.00;;;;;;;24.06;44.85;102779.09;5091106;28;20082;-66
2021/06/13 06:04:23;;;;;;;0.00;0.00;;;;;;;24.01;45.14;102774.25;5085726;28;20902;-66
2021/06/13 06:06:48;;;;;;;0.00;0.00;;;;;;;24.00;45.05;102783.22;5091334;28;20040;-66
2021/06/13 06:09:14;;;;;;;0.00;0.00;;;;;;;24.03;44.97;102771.41;5088783;28;20092;-67
2021/06/13 06:11:42;;;;;;;0.00;0.00;;;;;;;24.03;44.94;102784.72;5079539;28;20044;-65
2021/06/13 06:14:11;;;;;;;0.00;0.00;;;;;;;24.05;44.82;102780.91;5087923;28;20442;-66
2021/06/13 06:16:37;;;;;;;0.00;0.00;;;;;;;24.00;44.89;102785.88;5086636;28;20063;-66
2021/06/13 06:19:03;;;;;;;0.00;0.00;;;;;;;24.07;44.89;102802.06;5089963;28;20786;-66
2021/06/13 06:21:29;;;;;;;0.08;0.08;;;;;;;24.00;44.93;102793.88;5092556;28;20043;-67
2021/06/13 06:23:54;;;;;;;0.08;0.08;;;;;;;24.08;44.78;102795.75;5088313;28;20406;-66
2021/06/13 06:26:20;;;;;;;0.00;0.00;;;;;;;24.04;44.76;102810.34;5090819;28;20044;-67
2021/06/13 06:28:46;;;;;;;0.00;0.00;;;;;;;24.06;44.80;102808.38;5087895;28;20035;-67
2021/06/13 06:31:12;;;;;;;0.00;0.00;;;;;;;24.05;44.73;102802.19;5094369;28;20055;-66
2021/06/13 06:33:38;;;;;;;0.00;0.00;;;;;;;24.02;44.31;102799.03;5086728;28;20545;-66
2021/06/13 06:36:04;;;;;;;0.00;0.00;;;;;;;24.08;44.49;102814.38;5086697;28;20020;-66
2021/06/13 06:38:30;;;;;;;0.00;0.00;;;;;;;24.02;44.49;102801.69;5070429;28;20127;-66
2021/06/13 06:40:58;;;;;;;0.00;0.00;;;;;;;24.06;44.40;102811.03;5083329;28;20079;-66
2021/06/13 06:43:24;;;;;;;0.05;0.05;;;;;;;24.04;44.45;102813.00;5075596;28;20096;-66
2021/06/13 06:45:52;;;;;;;0.00;0.00;;;;;;;24.05;44.29;102814.66;5089102;28;20040;-66
2021/06/13 06:48:18;;;;;;;0.00;0.00;;;;;;;24.08;44.35;102823.19;5087053;28;20043;-66
2021/06/13 06:50:43;;;;;;;0.00;0.00;;;;;;;24.06;44.17;102809.22;5090103;28;20703;-66
2021/06/13 06:53:10;;;;;;;0.00;0.00;;;;;;;24.08;44.43;102814.38;5090271;28;20036;-66
2021/06/13 06:55:36;;;;;;;0.00;0.00;;;;;;;24.10;44.39;102815.03;5092677;28;20120;-66
2021/06/13 06:58:02;;;;;;;0.00;0.00;;;;;;;24.08;44.18;102822.38;5090385;28;20020;-66
2021/06/13 07:00:28;;;;;;;0.00;0.00;;;;;;;24.10;44.30;102820.38;5091776;28;20088;-66
2021/06/13 07:02:54;;;;;;;0.00;0.00;;;;;;;24.16;43.95;102830.38;5084176;28;20060;-66
2021/06/13 07:05:19;;;;;;;0.10;0.10;;;;;;;24.16;44.12;102834.84;5091641;28;20032;-66
2021/06/13 07:07:45;;;;;;;0.10;0.10;;;;;;;24.17;43.98;102837.34;5091778;28;20107;-66
2021/06/13 07:10:13;;;;;;;0.00;0.00;;;;;;;24.12;44.10;102837.00;5090339;28;20123;-66
2021/06/13 07:12:38;;;;;;;0.00;0.00;;;;;;;23.38;42.64;102845.53;5091294;28;20046;-74
2021/06/13 07:15:06;;;;;;;;;;;;;;;23.13;41.29;102844.47;5092511;28;20347;-75
2021/06/13 17:43:40;;;;;;;0.00;0.00;;;;;;;24.32;44.96;102673.38;5102144;27;20507;-67
2021/06/13 17:46:06;;;;;;;0.00;0.00;;;;;;;24.02;45.39;102665.97;5049887;28;20036;-74
2021/06/13 17:48:36;;;;;;;0.00;0.00;;;;;;;24.08;45.48;102668.81;5011267;28;704781;-68
2021/06/13 17:53:25;;;;;;;0.00;0.00;;;;;;;24.12;45.56;102658.69;4994071;27;568541;-68
2021/06/13 17:55:50;;;;;;;0.00;0.00;;;;;;;24.15;45.71;102658.34;5043713;28;20037;-68
2021/06/13 17:58:16;;;;;;;0.00;0.00;;;;;;;24.65;44.77;102658.22;5022849;28;20056;-68
2021/06/13 18:00:42;;;;;;;0.00;0.00;;;;;;;24.79;43.37;102669.22;5007334;28;21784;-71
2021/06/13 18:03:08;;;;;;;0.00;0.00;;;;;;;24.84;42.98;102656.22;5009926;28;20700;-74
2021/06/13 18:05:34;;;;;;;0.00;0.00;;;;;;;25.03;42.67;102663.03;5007720;28;20051;-67
2021/06/13 18:07:59;;;;;;;0.20;0.20;;;;;;;25.56;41.67;102655.16;5020525;28;20607;-68
2021/06/13 18:10:26;;;;;;;0.00;0.00;;;;;;;25.74;41.92;102654.13;4968437;28;261105;-67
2021/06/13 18:12:52;;;;;;;0.00;0.00;;;;;;;25.08;43.73;102656.19;4908795;28;661927;-70
2021/06/13 18:15:17;;;;;;;0.00;0.00;;;;;;;25.04;41.52;102656.69;4994123;28;20128;-67
2021/06/13 18:17:47;;;;;;;0.00;0.00;;;;;;;25.05;41.47;102653.03;4993846;28;20036;-67
2021/06/13 18:20:14;;;;;;;0.00;0.00;;;;;;;25.02;41.51;102645.38;5023342;28;20131;-82
2021/06/13 18:22:40;;;;;;;0.00;0.00;;;;;;;24.84;41.92;102653.53;5050203;28;20033;-78
2021/06/13 18:26:51;;;;;;;0.00;0.00;;;;;;;24.92;41.08;102648.19;4723698;27;20137;-81
2021/06/13 18:29:17;;;;;;;0.00;0.00;;;;;;;24.98;41.04;102651.03;4953065;28;20590;-75
2021/06/13 18:33:12;;;;;;;0.00;0.00;;;;;;;24.85;40.27;102626.72;4883578;27;86632;-80
2021/06/13 18:35:56;;;;;;;0.00;0.00;;;;;;;24.87;40.52;102643.38;4800802;27;76903;-76
2021/06/13 18:38:22;;;;;;;0.00;0.00;;;;;;;24.80;41.08;102636.25;4953072;28;67381;-81
2021/06/13 18:40:48;;;;;;;0.00;0.00;;;;;;;25.27;39.99;102633.63;4928072;27;20036;-72
2021/06/13 18:43:14;;;;;;;0.00;0.00;;;;;;;25.27;40.28;102630.94;4936343;28;20107;-69
2021/06/13 18:45:42;;;;;;;0.00;0.00;;;;;;;25.33;41.16;102635.63;4993273;28;20052;-69
2021/06/13 18:48:07;;;;;;;0.00;0.00;;;;;;;25.21;41.77;102631.66;5001462;28;20037;-70
2021/06/13 18:50:33;;;;;;;0.00;0.00;;;;;;;25.07;42.21;102635.84;5015100;28;20041;-70
2021/06/13 18:52:59;;;;;;;0.00;0.00;;;;;;;25.09;42.26;102633.00;4970365;28;20041;-70
2021/06/13 18:55:25;;;;;;;0.00;0.00;;;;;;;25.09;42.42;102639.19;5009343;28;20123;-70
2021/06/13 18:57:51;;;;;;;0.00;0.00;;;;;;;25.17;42.13;102622.34;4977286;28;20547;-70
2021/06/13 19:00:17;;;;;;;0.00;0.00;;;;;;;25.17;42.21;102633.00;4959177;28;20583;-69
2021/06/13 19:02:43;;;;;;;0.00;0.00;;;;;;;25.20;42.20;102638.81;4964568;28;20033;-69
2021/06/13 19:05:10;;;;;;;0.00;0.00;;;;;;;25.16;42.21;102642.84;4949428;28;20149;-69
2021/06/13 19:07:35;;;;;;;0.00;0.00;;;;;;;25.25;42.16;102635.63;4990375;28;20041;-68
2021/06/13 19:10:01;;;;;;;0.00;0.00;;;;;;;25.12;42.40;102646.81;5003699;28;20803;-68
2021/06/13 19:12:26;;;;;;;0.00;0.00;;;;;;;25.14;42.53;102650.19;5002375;28;20054;-69
2021/06/13 19:14:52;;;;;;;0.00;0.00;;;;;;;25.15;42.41;102651.84;5024103;28;20052;-68
2021/06/13 19:17:17;;;;;;;0.00;0.00;;;;;;;25.19;42.70;102649.66;5000617;28;20063;-68
2021/06/13 19:19:46;;;;;;;0.00;0.00;;;;;;;25.07;42.67;102643.03;5022890;28;20491;-69
2021/06/13 19:22:13;;;;;;;0.00;0.00;;;;;;;25.06;42.92;102647.53;5002307;28;20049;-69
2021/06/13 19:24:38;;;;;;;0.10;0.10;;;;;;;25.05;42.88;102640.53;5007764;28;20051;-69
2021/06/13 19:27:04;;;;;;;0.00;0.00;;;;;;;25.12;42.87;102649.50;5023213;28;20041;-69
2021/06/13 19:29:30;;;;;;;0.00;0.00;;;;;;;25.08;42.88;102647.34;5002817;28;20038;-69
2021/06/13 19:31:56;;;;;;;0.00;0.00;;;;;;;25.02;43.00;102643.53;5029074;28;20037;-68
2021/06/13 19:34:21;;;;;;;0.00;0.00;;;;;;;25.11;43.22;102652.34;4999071;28;20088;-68
2021/06/13 19:36:47;;;;;;;0.00;0.00;;;;;;;25.09;43.16;102646.34;5030793;28;20153;-68
2021/06/13 19:39:13;;;;;;;0.00;0.00;;;;;;;25.05;43.14;102635.19;4991878;28;20045;-68
2021/06/13 19:41:40;;;;;;;0.00;0.00;;;;;;;25.04;43.04;102638.03;5016345;28;20041;-68
2021/06/13 19:44:06;;;;;;;0.00;0.00;;;;;;;25.11;43.04;102650.50;5022572;28;20072;-68
2021/06/13 19:46:33;;;;;;;0.00;0.00;;;;;;;25.11;42.88;102647.84;4991443;28;20085;-68
2021/06/13 19:48:59;;;;;;;0.00;0.00;;;;;;;25.05;43.11;102643.19;5010724;28;20228;-68
2021/06/13 19:51:24;;;;;;;0.00;0.00;;;;;;;25.03;43.33;102647.88;4990312;28;20484;-69
2021/06/13 19:53:50;;;;;;;0.00;0.00;;;;;;;25.02;43.20;102637.38;5012891;28;20493;-68
2021/06/13 19:56:17;;;;;;;0.00;0.00;;;;;;;25.02;43.55;102648.88;4989236;28;20033;-69
2021/06/13 19:58:47;;;;;;;0.00;0.00;;;;;;;25.06;43.32;102652.84;5013920;28;21195;-68
2021/06/13 20:01:16;;;;;;;0.00;0.00;;;;;;;25.04;43.33;102649.53;4999576;28;20037;-68
2021/06/13 20:03:42;;;;;;;0.00;0.00;;;;;;;25.07;43.36;102649.19;5038859;28;20047;-68
2021/06/13 20:06:09;;;;;;;0.00;0.00;;;;;;;25.00;43.22;102621.56;4999593;28;20103;-68
2021/06/13 20:08:34;;;;;;;0.00;0.00;;;;;;;25.09;43.06;102647.19;5023284;28;20760;-68
2021/06/13 20:11:02;;;;;;;0.00;0.00;;;;;;;25.10;43.32;102638.19;4979946;28;20048;-67
2021/06/13 20:13:28;;;;;;;0.00;0.00;;;;;;;25.07;43.37;102635.03;5005482;28;20041;-68
2021/06/13 20:15:54;;;;;;;0.00;0.00;;;;;;;25.13;43.37;102637.00;4996284;28;20061;-67
2021/06/13 20:18:21;;;;;;;0.00;0.00;;;;;;;25.11;43.34;102639.00;5024829;28;20041;-68
2021/06/13 20:20:47;;;;;;;0.00;0.00;;;;;;;25.11;43.33;102631.84;4980501;28;20107;-68
2021/06/13 20:23:13;;;;;;;0.00;0.00;;;;;;;25.06;43.39;102634.19;5055904;28;20045;-68
2021/06/13 20:25:39;;;;;;;0.00;0.00;;;;;;;25.16;43.24;102631.34;5005235;28;20048;-68
2021/06/13 20:28:07;;;;;;;0.00;0.00;;;;;;;25.19;43.35;102636.31;4981183;28;20072;-69
2021/06/13 20:30:33;;;;;;;0.00;0.00;;;;;;;25.20;43.24;102638.00;5009665;28;20042;-68
2021/06/13 20:33:00;;;;;;;0.00;0.00;;;;;;;25.22;43.03;102634.16;4987228;28;20054;-68
2021/06/13 20:35:26;;;;;;;0.00;0.00;;;;;;;25.20;43.27;102627.31;5018286;28;20045;-68
2021/06/13 20:37:52;;;;;;;0.00;0.00;;;;;;;25.19;43.25;102629.16;4977345;28;21755;-68
2021/06/13 20:40:19;;;;;;;0.00;0.00;;;;;;;25.17;43.30;102622.34;5021443;28;20069;-68
2021/06/13 20:42:46;;;;;;;0.00;0.00;;;;;;;25.13;43.60;102629.00;4986889;28;20041;-68
2021/06/13 20:45:13;;;;;;;0.00;0.00;;;;;;;25.11;43.33;102628.34;5011705;28;20080;-70
2021/06/13 20:47:43;;;;;;;0.00;0.00;;;;;;;25.22;43.35;102628.81;4996456;28;20782;-69
2021/06/13 20:50:09;;;;;;;0.00;0.00;;;;;;;25.17;43.19;102619.69;5023598;28;20050;-68
2021/06/13 20:52:35;;;;;;;0.00;0.00;;;;;;;25.18;43.32;102622.16;4996598;28;20128;-69
2021/06/13 20:55:03;;;;;;;0.00;0.00;;;;;;;25.21;43.34;102623.66;5020722;28;20526;-69
2021/06/13 20:57:28;;;;;;;0.00;0.00;;;;;;;25.16;43.32;102621.50;4986459;28;20049;-69
2021/06/13 20:59:54;;;;;;;0.00;0.00;;;;;;;25.20;43.45;102612.16;5024296;28;20049;-68
2021/06/13 21:02:19;;;;;;;0.00;0.00;;;;;;;25.21;43.26;102613.81;4995714;28;20869;-68
2021/06/13 21:04:46;;;;;;;0.00;0.00;;;;;;;25.18;43.47;102611.50;5026602;28;20088;-67
2021/06/13 21:07:11;;;;;;;0.00;0.00;;;;;;;25.15;43.38;102608.34;4997073;28;20870;-67
2021/06/13 21:09:37;;;;;;;0.00;0.00;;;;;;;25.17;43.36;102603.69;5021305;28;20068;-68
2021/06/13 21:12:05;;;;;;;0.00;0.00;;;;;;;25.19;43.52;102610.50;4998956;28;20056;-67
2021/06/13 21:14:31;;;;;;;0.00;0.00;;;;;;;25.23;43.39;102605.66;5021843;28;20481;-68
2021/06/13 21:16:57;;;;;;;0.00;0.00;;;;;;;25.21;43.27;102613.81;5005681;28;20107;-68
2021/06/13 21:19:23;;;;;;;0.00;0.00;;;;;;;25.29;43.36;102611.09;5012770;28;20041;-68
2021/06/13 21:21:48;;;;;;;0.00;0.00;;;;;;;25.23;43.48;102608.31;5015636;28;20330;-67
2021/06/13 21:24:14;;;;;;;0.00;0.00;;;;;;;25.23;43.31;102609.16;5004111;28;20141;-68
2021/06/13 21:26:40;;;;;;;0.00;0.00;;;;;;;25.22;43.33;102596.00;5022096;28;20049;-68
2021/06/13 21:29:05;;;;;;;0.00;0.00;;;;;;;25.17;43.33;102596.50;4986080;28;20041;-68
2021/06/13 21:31:31;;;;;;;0.00;0.00;;;;;;;25.23;43.47;102594.97;5021770;28;20908;-69
2021/06/13 21:33:56;;;;;;;0.00;0.00;;;;;;;25.17;43.39;102588.50;4980571;28;20103;-68
2021/06/13 21:36:22;;;;;;;0.00;0.00;;;;;;;25.09;43.57;102585.88;5024159;28;20090;-68
2021/06/13 21:38:48;;;;;;;0.00;0.00;;;;;;;25.23;43.50;102594.97;4995677;28;20064;-68
2021/06/13 21:41:15;;;;;;;0.00;0.00;;;;;;;25.07;43.55;102585.22;5021266;28;20048;-68
2021/06/13 21:43:43;;;;;;;0.00;0.00;;;;;;;25.19;43.52;102583.00;4982677;28;20416;-68
2021/06/13 21:46:09;;;;;;;0.00;0.00;;;;;;;25.20;43.51;102580.16;5021492;28;20049;-68
2021/06/13 21:48:34;;;;;;;0.00;0.00;;;;;;;25.18;43.50;102576.84;4995100;28;21262;-68
2021/06/13 21:51:00;;;;;;;0.00;0.00;;;;;;;25.20;43.48;102582.00;5023186;28;20068;-68
2021/06/13 21:53:25;;;;;;;0.00;0.00;;;;;;;25.21;43.51;102576.50;5001801;28;20171;-68
2021/06/13 21:55:51;;;;;;;0.00;0.00;;;;;;;25.20;43.55;102574.00;5018272;28;20061;-68
2021/06/13 21:58:16;;;;;;;0.00;0.00;;;;;;;25.21;43.64;102567.66;5014648;28;20067;-67